createdAt,value
2018-10-21T00:00:35.703Z,8.30
2018-10-21T00:03:05.621Z,8.30
2018-10-21T00:05:35.600Z,8.40
2018-10-21T00:08:05.739Z,8.40
2018-10-21T00:10:35.483Z,8.40
2018-10-21T00:13:05.227Z,8.40
2018-10-21T00:15:35.149Z,8.40
2018-10-21T00:18:04.947Z,8.60
2018-10-21T00:20:34.639Z,8.70
2018-10-21T00:23:04.379Z,8.60
2018-10-21T00:25:34.035Z,8.60
2018-10-21T00:28:04.287Z,8.60
2018-10-21T00:30:33.938Z,8.60
2018-10-21T00:33:03.782Z,8.70
2018-10-21T00:35:33.735Z,8.70
2018-10-21T00:38:03.471Z,8.60
2018-10-21T00:40:33.171Z,8.60
2018-10-21T00:43:02.896Z,8.60
2018-10-21T00:45:32.599Z,8.50
2018-10-21T00:48:02.663Z,8.40
2018-10-21T00:50:32.727Z,8.40
2018-10-21T00:53:02.438Z,8.40
2018-10-21T00:55:32.162Z,8.40
2018-10-21T00:58:01.907Z,8.40
2018-10-21T01:00:31.962Z,8.40
2018-10-21T01:03:01.698Z,8.50
2018-10-21T01:05:31.614Z,8.60
2018-10-21T01:08:01.319Z,8.60
2018-10-21T01:10:31.031Z,8.60
2018-10-21T01:13:00.714Z,8.50
2018-10-21T01:15:30.494Z,8.30
2018-10-21T01:18:00.202Z,8.30
2018-10-21T01:20:29.938Z,8.10
2018-10-21T01:22:59.625Z,8.10
2018-10-21T01:25:29.331Z,8.00
2018-10-21T01:27:58.999Z,8.00
2018-10-21T01:30:28.723Z,7.90
2018-10-21T01:32:58.434Z,7.80
2018-10-21T01:35:28.370Z,7.80
2018-10-21T01:37:58.155Z,7.90
2018-10-21T01:40:47.439Z,7.90
2018-10-21T01:43:18.250Z,7.80
2018-10-21T01:45:48.031Z,7.80
2018-10-21T01:48:18.789Z,7.90
2018-10-21T01:50:48.558Z,7.90
2018-10-21T01:53:19.023Z,7.80
2018-10-21T01:55:48.746Z,7.80
2018-10-21T01:58:18.467Z,7.80
2018-10-21T02:00:48.210Z,7.80
2018-10-21T02:03:18.361Z,7.80
2018-10-21T02:05:48.706Z,7.80
2018-10-21T02:08:18.375Z,7.90
2018-10-21T02:10:48.079Z,7.90
2018-10-21T02:13:17.772Z,8.00
2018-10-21T02:15:47.472Z,8.00
2018-10-21T02:18:17.175Z,8.00
2018-10-21T02:20:46.897Z,8.10
2018-10-21T02:23:16.988Z,8.10
2018-10-21T02:25:46.716Z,8.00
2018-10-21T02:28:16.426Z,8.00
2018-10-21T02:30:46.131Z,8.00
2018-10-21T02:33:15.920Z,8.00
2018-10-21T02:35:45.766Z,7.90
2018-10-21T02:38:15.471Z,7.90
2018-10-21T02:41:23.357Z,7.90
2018-10-21T02:43:53.079Z,7.80
2018-10-21T02:46:23.705Z,7.60
2018-10-21T02:48:54.414Z,7.40
2018-10-21T02:51:24.147Z,7.30
2018-10-21T02:53:53.870Z,7.20
2018-10-21T02:56:23.908Z,7.20
2018-10-21T02:58:54.005Z,7.20
2018-10-21T03:01:23.728Z,7.20
2018-10-21T03:03:53.415Z,7.20
2018-10-21T03:06:23.587Z,7.10
2018-10-21T03:08:53.295Z,7.10
2018-10-21T03:11:23.023Z,7.10
2018-10-21T03:13:52.720Z,7.20
2018-10-21T03:16:22.442Z,7.20
2018-10-21T03:18:52.158Z,7.10
2018-10-21T03:21:22.155Z,7.10
2018-10-21T03:23:51.887Z,7.00
2018-10-21T03:26:21.638Z,7.00
2018-10-21T03:28:51.358Z,7.00
2018-10-21T03:31:21.080Z,7.00
2018-10-21T03:33:50.880Z,7.10
2018-10-21T03:36:20.738Z,7.10
2018-10-21T03:38:50.428Z,7.10
2018-10-21T03:41:20.151Z,7.10
2018-10-21T03:43:49.867Z,7.00
2018-10-21T03:46:19.735Z,6.90
2018-10-21T03:48:49.582Z,6.90
2018-10-21T03:51:19.295Z,7.00
2018-10-21T03:53:49.007Z,7.00
2018-10-21T03:56:18.714Z,7.00
2018-10-21T03:58:48.430Z,7.20
2018-10-21T04:01:18.160Z,7.30
2018-10-21T04:03:47.869Z,7.30
2018-10-21T04:06:17.598Z,7.20
2018-10-21T04:08:47.340Z,7.20
2018-10-21T04:11:17.050Z,7.20
2018-10-21T04:13:47.044Z,7.20
2018-10-21T04:16:16.811Z,7.30
2018-10-21T04:18:46.682Z,7.30
2018-10-21T04:21:16.407Z,7.40
2018-10-21T04:23:46.095Z,7.40
2018-10-21T04:26:15.815Z,7.40
2018-10-21T04:28:45.499Z,7.40
2018-10-21T04:31:15.199Z,7.30
2018-10-21T04:33:45.856Z,7.10
2018-10-21T04:36:17.568Z,7.00
2018-10-21T04:40:04.348Z,6.80
2018-10-21T04:42:34.225Z,7.00
2018-10-21T04:45:04.495Z,7.10
2018-10-21T04:47:34.614Z,7.00
2018-10-21T04:50:04.402Z,7.00
2018-10-21T04:52:34.378Z,7.00
2018-10-21T04:55:08.258Z,7.20
2018-10-21T04:57:39.110Z,7.30
2018-10-21T05:00:20.479Z,7.30
2018-10-21T05:02:50.172Z,7.40
2018-10-21T05:05:19.898Z,7.50
2018-10-21T05:07:49.598Z,7.50
2018-10-21T05:10:24.331Z,7.50
2018-10-21T05:12:54.126Z,7.50
2018-10-21T05:15:24.772Z,7.70
2018-10-21T05:17:54.811Z,7.80
2018-10-21T05:20:24.546Z,7.80
2018-10-21T05:22:54.280Z,7.90
2018-10-21T05:25:24.126Z,7.90
2018-10-21T05:27:54.096Z,7.70
2018-10-21T05:30:23.959Z,7.50
2018-10-21T05:32:53.658Z,7.40
2018-10-21T05:35:23.335Z,7.30
2018-10-21T05:37:54.651Z,7.30
2018-10-21T05:40:26.492Z,7.20
2018-10-21T05:42:56.818Z,7.20
2018-10-21T05:45:27.733Z,7.50
2018-10-21T05:47:59.644Z,7.70
2018-10-21T05:50:30.001Z,7.90
2018-10-21T05:53:00.199Z,7.90
2018-10-21T05:55:29.891Z,7.90
2018-10-21T05:57:59.621Z,7.90
2018-10-21T06:00:29.491Z,7.80
2018-10-21T06:02:59.422Z,7.80
2018-10-21T06:05:35.637Z,7.80
2018-10-21T06:08:06.104Z,7.80
2018-10-21T06:10:35.782Z,7.80
2018-10-21T06:13:05.991Z,7.80
2018-10-21T06:15:35.738Z,7.80
2018-10-21T06:18:07.662Z,7.70
2018-10-21T06:20:39.930Z,7.80
2018-10-21T06:23:11.288Z,7.70
2018-10-21T06:25:45.686Z,7.70
2018-10-21T06:28:15.458Z,7.80
2018-10-21T06:30:45.341Z,7.80
2018-10-21T06:33:15.117Z,7.80
2018-10-21T06:35:44.999Z,7.90
2018-10-21T06:38:14.704Z,7.90
2018-10-21T06:40:44.422Z,7.90
2018-10-21T06:43:14.159Z,7.90
2018-10-21T06:45:43.978Z,7.90
2018-10-21T06:48:13.799Z,8.00
2018-10-21T06:50:43.726Z,8.10
2018-10-21T06:53:13.559Z,8.10
2018-10-21T06:55:43.503Z,8.20
2018-10-21T06:58:13.647Z,8.20
2018-10-21T07:00:43.444Z,8.10
2018-10-21T07:03:13.158Z,8.10
2018-10-21T07:06:16.725Z,8.20
2018-10-21T07:08:46.951Z,8.20
2018-10-21T07:11:16.879Z,8.20
2018-10-21T07:13:46.689Z,8.30
2018-10-21T07:16:16.615Z,8.40
2018-10-21T07:18:47.747Z,8.50
2018-10-21T07:21:17.956Z,8.60
2018-10-21T07:23:47.966Z,8.60
2018-10-21T07:26:18.186Z,8.60
2018-10-21T07:28:48.331Z,8.60
2018-10-21T07:31:18.326Z,8.70
2018-10-21T07:33:48.659Z,8.70
2018-10-21T07:36:18.443Z,8.70
2018-10-21T07:38:48.318Z,8.80
2018-10-21T07:41:18.384Z,8.90
2018-10-21T07:43:48.762Z,9.00
2018-10-21T07:46:18.557Z,9.10
2018-10-21T07:48:48.543Z,9.00
2018-10-21T07:51:18.562Z,9.00
2018-10-21T07:53:48.312Z,8.90
2018-10-21T07:56:18.010Z,8.90
2018-10-21T07:58:48.007Z,9.00
2018-10-21T08:01:17.883Z,9.20
2018-10-21T08:03:47.815Z,9.40
2018-10-21T08:06:31.218Z,9.50
2018-10-21T08:09:00.975Z,9.70
2018-10-21T08:11:31.075Z,9.80
2018-10-21T08:14:01.004Z,9.90
2018-10-21T08:16:30.792Z,10.00
2018-10-21T08:19:00.583Z,10.20
2018-10-21T08:21:30.342Z,10.20
2018-10-21T08:24:00.079Z,10.20
2018-10-21T08:26:29.905Z,10.20
2018-10-21T08:28:59.639Z,10.30
2018-10-21T08:31:29.391Z,10.40
2018-10-21T08:33:59.196Z,10.50
2018-10-21T08:36:29.107Z,10.50
2018-10-21T08:38:58.822Z,10.50
2018-10-21T08:41:28.530Z,10.60
2018-10-21T08:43:58.236Z,10.70
2018-10-21T08:46:27.945Z,10.80
2018-10-21T08:48:57.925Z,10.80
2018-10-21T08:51:27.799Z,10.90
2018-10-21T08:53:57.483Z,11.00
2018-10-21T08:56:27.176Z,11.10
2018-10-21T08:58:57.503Z,11.20
2018-10-21T09:01:27.223Z,11.30
2018-10-21T09:03:56.960Z,11.40
2018-10-21T09:06:26.836Z,11.40
2018-10-21T09:08:56.778Z,11.50
2018-10-21T09:11:26.508Z,11.60
2018-10-21T09:13:56.222Z,11.60
2018-10-21T09:16:25.938Z,11.70
2018-10-21T09:18:56.184Z,11.70
2018-10-21T09:21:25.889Z,11.80
2018-10-21T09:23:55.584Z,11.80
2018-10-21T09:26:25.463Z,11.80
2018-10-21T09:28:55.211Z,11.80
2018-10-21T09:31:24.908Z,12.00
2018-10-21T09:33:54.631Z,12.00
2018-10-21T09:36:24.506Z,12.00
2018-10-21T09:38:54.172Z,12.10
2018-10-21T09:41:23.876Z,12.10
2018-10-21T09:43:53.899Z,12.20
2018-10-21T09:46:23.839Z,12.30
2018-10-21T09:48:53.521Z,12.30
2018-10-21T09:51:23.215Z,12.30
2018-10-21T09:53:52.891Z,12.40
2018-10-21T09:56:22.687Z,12.50
2018-10-21T09:58:52.368Z,12.50
2018-10-21T10:01:27.397Z,12.60
2018-10-21T10:03:57.141Z,12.60
2018-10-21T10:06:27.679Z,12.60
2018-10-21T10:08:57.351Z,12.70
2018-10-21T10:11:27.063Z,12.70
2018-10-21T10:13:56.739Z,12.80
2018-10-21T10:16:26.434Z,12.80
2018-10-21T10:18:56.167Z,12.80
2018-10-21T10:21:27.234Z,12.90
2018-10-21T10:23:57.477Z,12.90
2018-10-21T10:26:27.313Z,13.00
2018-10-21T10:28:57.090Z,13.00
2018-10-21T10:31:27.099Z,13.00
2018-10-21T10:33:57.341Z,13.10
2018-10-21T10:36:27.253Z,13.10
2018-10-21T10:38:56.940Z,13.10
2018-10-21T10:41:26.657Z,13.20
2018-10-21T10:43:56.361Z,13.20
2018-10-21T10:46:26.075Z,13.30
2018-10-21T10:48:55.802Z,13.30
2018-10-21T10:51:25.721Z,13.30
2018-10-21T10:53:55.411Z,13.40
2018-10-21T10:56:25.131Z,13.50
2018-10-21T10:58:54.831Z,13.50
2018-10-21T11:01:24.659Z,13.50
2018-10-21T11:03:54.778Z,13.60
2018-10-21T11:06:24.777Z,13.50
2018-10-21T11:08:54.772Z,13.50
2018-10-21T11:11:24.491Z,13.60
2018-10-21T11:13:54.220Z,13.60
2018-10-21T11:16:23.987Z,13.60
2018-10-21T11:18:53.708Z,13.70
2018-10-21T11:21:23.426Z,13.70
2018-10-21T11:23:53.247Z,13.70
2018-10-21T11:26:23.303Z,13.70
2018-10-21T11:28:53.027Z,13.70
2018-10-21T11:31:22.735Z,13.80
2018-10-21T11:33:52.439Z,13.90
2018-10-21T11:36:22.386Z,13.90
2018-10-21T11:38:52.102Z,13.90
2018-10-21T11:41:21.799Z,13.90
2018-10-21T11:43:51.537Z,14.00
2018-10-21T11:46:21.323Z,13.90
2018-10-21T11:48:51.198Z,14.00
2018-10-21T11:51:20.910Z,13.90
2018-10-21T11:53:50.671Z,13.90
2018-10-21T11:56:20.415Z,13.80
2018-10-21T11:58:50.126Z,13.90
2018-10-21T12:01:19.847Z,14.00
2018-10-21T12:03:49.583Z,14.00
2018-10-21T12:06:19.279Z,14.00
2018-10-21T12:08:49.019Z,14.10
2018-10-21T12:11:18.714Z,14.10
2018-10-21T12:13:48.410Z,14.10
2018-10-21T12:16:18.134Z,14.10
2018-10-21T12:18:48.016Z,14.10
2018-10-21T12:21:17.719Z,14.10
2018-10-21T12:23:47.443Z,14.10
2018-10-21T12:26:17.129Z,14.10
2018-10-21T12:28:47.988Z,14.10
2018-10-21T12:31:19.043Z,14.10
2018-10-21T12:33:48.922Z,14.10
2018-10-21T12:36:18.623Z,14.20
2018-10-21T12:38:48.310Z,14.20
2018-10-21T12:41:18.049Z,14.30
2018-10-21T12:43:47.888Z,14.30
2018-10-21T12:46:17.592Z,14.30
2018-10-21T12:48:47.493Z,14.20
2018-10-21T12:51:17.220Z,14.20
2018-10-21T12:53:46.967Z,14.30
2018-10-21T12:56:16.671Z,14.30
2018-10-21T12:58:48.076Z,14.30
2018-10-21T13:01:17.818Z,14.30
2018-10-21T13:03:47.695Z,14.40
2018-10-21T13:06:17.374Z,14.40
2018-10-21T13:08:47.099Z,14.40
2018-10-21T13:11:16.791Z,14.40
2018-10-21T13:13:46.484Z,14.40
2018-10-21T13:16:16.280Z,14.40
2018-10-21T13:18:46.159Z,14.40
2018-10-21T13:21:15.896Z,14.40
2018-10-21T13:23:45.606Z,14.50
2018-10-21T13:26:15.340Z,14.50
2018-10-21T13:28:45.470Z,14.40
2018-10-21T13:31:15.425Z,14.50
2018-10-21T13:33:45.294Z,14.50
2018-10-21T13:36:14.997Z,14.50
2018-10-21T13:38:44.700Z,14.40
2018-10-21T13:41:14.374Z,14.40
2018-10-21T13:43:44.075Z,14.40
2018-10-21T13:46:13.819Z,14.40
2018-10-21T13:48:43.785Z,14.50
2018-10-21T13:51:13.481Z,14.40
2018-10-21T13:53:44.020Z,14.50
2018-10-21T13:56:13.723Z,14.50
2018-10-21T13:58:43.415Z,14.50
2018-10-21T14:01:13.157Z,14.40
2018-10-21T14:03:43.078Z,14.40
2018-10-21T14:06:12.801Z,14.40
2018-10-21T14:08:42.491Z,14.40
2018-10-21T14:11:12.220Z,14.40
2018-10-21T14:13:41.923Z,14.40
2018-10-21T14:16:11.704Z,14.40
2018-10-21T14:18:41.602Z,14.40
2018-10-21T14:21:11.566Z,14.40
2018-10-21T14:23:41.924Z,14.40
2018-10-21T14:26:11.690Z,14.30
2018-10-21T14:28:41.419Z,14.30
2018-10-21T14:31:11.187Z,14.30
2018-10-21T14:33:41.201Z,14.30
2018-10-21T14:36:11.027Z,14.30
2018-10-21T14:38:40.878Z,14.30
2018-10-21T14:41:10.609Z,14.20
2018-10-21T14:43:40.329Z,14.20
2018-10-21T14:46:10.115Z,14.20
2018-10-21T14:48:39.947Z,14.20
2018-10-21T14:51:09.743Z,14.20
2018-10-21T14:53:39.581Z,14.20
2018-10-21T14:56:09.355Z,14.20
2018-10-21T14:58:39.550Z,14.20
2018-10-21T15:01:09.304Z,14.10
2018-10-21T15:03:39.131Z,14.10
2018-10-21T15:06:09.010Z,14.10
2018-10-21T15:08:38.879Z,14.10
2018-10-21T15:11:08.647Z,14.10
2018-10-21T15:13:38.342Z,14.10
2018-10-21T15:16:08.081Z,14.00
2018-10-21T15:18:38.039Z,14.00
2018-10-21T15:21:07.738Z,14.00
2018-10-21T15:23:37.419Z,14.00
2018-10-21T15:26:07.192Z,13.90
2018-10-21T15:28:37.052Z,13.90
2018-10-21T15:31:06.736Z,13.90
2018-10-21T15:33:36.407Z,13.90
2018-10-21T15:36:06.125Z,13.80
2018-10-21T15:38:35.858Z,13.80
2018-10-21T15:41:05.706Z,13.80
2018-10-21T15:43:35.370Z,13.70
2018-10-21T15:46:05.505Z,13.70
2018-10-21T15:48:35.351Z,13.60
2018-10-21T15:51:05.371Z,13.60
2018-10-21T15:53:35.046Z,13.60
2018-10-21T15:56:05.279Z,13.50
2018-10-21T15:58:35.121Z,13.50
2018-10-21T16:01:05.456Z,13.40
2018-10-21T16:03:35.141Z,13.40
2018-10-21T16:06:05.141Z,13.30
2018-10-21T16:08:35.083Z,13.30
2018-10-21T16:11:04.963Z,13.20
2018-10-21T16:13:34.927Z,13.10
2018-10-21T16:16:04.715Z,13.10
2018-10-21T16:18:34.941Z,13.00
2018-10-21T16:21:05.016Z,13.00
2018-10-21T16:23:34.686Z,12.90
2018-10-21T16:26:05.015Z,12.90
2018-10-21T16:28:34.867Z,12.90
2018-10-21T16:31:04.943Z,12.80
2018-10-21T16:33:34.747Z,12.80
2018-10-21T16:36:04.863Z,12.70
2018-10-21T16:38:34.592Z,12.70
2018-10-21T16:41:04.510Z,12.70
2018-10-21T16:43:34.206Z,12.60
2018-10-21T16:46:03.991Z,12.60
2018-10-21T16:48:33.679Z,12.50
2018-10-21T16:51:03.496Z,12.50
2018-10-21T16:53:33.334Z,12.50
2018-10-21T16:56:03.387Z,12.40
2018-10-21T16:58:33.103Z,12.40
2018-10-21T17:01:02.927Z,12.50
2018-10-21T17:03:32.838Z,12.40
2018-10-21T17:06:03.155Z,12.30
2018-10-21T17:08:32.935Z,12.30
2018-10-21T17:11:02.629Z,12.20
2018-10-21T17:13:32.559Z,12.00
2018-10-21T17:16:02.488Z,11.90
2018-10-21T17:18:32.346Z,11.80
2018-10-21T17:21:02.083Z,11.70
2018-10-21T17:23:31.856Z,11.70
2018-10-21T17:26:01.535Z,11.70
2018-10-21T17:28:31.279Z,11.60
2018-10-21T17:31:01.021Z,11.50
2018-10-21T17:33:30.914Z,11.40
2018-10-21T17:36:00.669Z,11.40
2018-10-21T17:38:30.366Z,11.30
2018-10-21T17:41:00.043Z,11.20
2018-10-21T17:43:29.766Z,11.10
2018-10-21T17:45:59.487Z,11.10
2018-10-21T17:48:29.380Z,11.00
2018-10-21T17:50:59.084Z,10.90
2018-10-21T17:53:28.831Z,10.80
2018-10-21T17:55:58.526Z,10.80
2018-10-21T17:58:28.405Z,10.70
2018-10-21T18:00:58.274Z,10.60
2018-10-21T18:03:28.151Z,10.50
2018-10-21T18:05:57.922Z,10.40
2018-10-21T18:08:27.711Z,10.40
2018-10-21T18:10:58.411Z,10.30
2018-10-21T18:13:28.158Z,10.30
2018-10-21T18:15:57.870Z,10.30
2018-10-21T18:18:27.794Z,10.20
2018-10-21T18:20:59.155Z,10.20
2018-10-21T18:23:28.846Z,10.10
2018-10-21T18:25:58.861Z,10.10
2018-10-21T18:28:28.751Z,10.00
2018-10-21T18:30:58.480Z,10.00
2018-10-21T18:33:28.442Z,10.00
2018-10-21T18:35:58.154Z,10.00
2018-10-21T18:38:27.931Z,10.00
2018-10-21T18:40:57.757Z,9.90
2018-10-21T18:43:29.567Z,9.80
2018-10-21T18:45:59.781Z,9.80
2018-10-21T18:48:30.182Z,9.70
2018-10-21T18:51:00.390Z,9.70
2018-10-21T18:53:30.369Z,9.70
2018-10-21T18:56:00.534Z,9.60
2018-10-21T18:58:30.888Z,9.60
2018-10-21T19:01:01.055Z,9.60
2018-10-21T19:03:30.791Z,9.50
2018-10-21T19:06:00.909Z,9.50
2018-10-21T19:08:30.619Z,9.50
2018-10-21T19:11:00.648Z,9.50
2018-10-21T19:13:30.921Z,9.40
2018-10-21T19:16:00.814Z,9.40
2018-10-21T19:18:30.745Z,9.40
2018-10-21T19:21:00.524Z,9.30
2018-10-21T19:23:30.211Z,9.20
2018-10-21T19:26:00.702Z,9.20
2018-10-21T19:28:30.410Z,9.10
2018-10-21T19:31:00.216Z,9.10
2018-10-21T19:33:30.074Z,9.00
2018-10-21T19:35:59.770Z,9.00
2018-10-21T19:38:29.495Z,8.90
2018-10-21T19:40:59.207Z,8.80
2018-10-21T19:43:29.089Z,8.80
2018-10-21T19:45:59.099Z,8.90
2018-10-21T19:48:28.956Z,8.90
2018-10-21T19:50:58.627Z,8.90
2018-10-21T19:53:28.411Z,9.00
2018-10-21T19:55:58.964Z,9.00
2018-10-21T19:58:28.736Z,8.90
2018-10-21T20:00:58.715Z,9.00
2018-10-21T20:03:28.654Z,9.10
2018-10-21T20:05:58.424Z,9.10
2018-10-21T20:08:28.095Z,9.10
2018-10-21T20:10:57.872Z,9.10
2018-10-21T20:13:27.595Z,9.10
2018-10-21T20:16:02.435Z,9.00
2018-10-21T20:18:32.706Z,9.00
2018-10-21T20:21:02.510Z,8.80
2018-10-21T20:23:32.206Z,8.80
2018-10-21T20:26:01.949Z,8.80
2018-10-21T20:28:31.945Z,8.70
2018-10-21T20:31:01.692Z,8.70
2018-10-21T20:33:31.528Z,8.70
2018-10-21T20:36:01.234Z,8.60
2018-10-21T20:38:30.918Z,8.60
2018-10-21T20:41:00.773Z,8.60
2018-10-21T20:43:30.458Z,8.50
2018-10-21T20:46:00.189Z,8.60
2018-10-21T20:48:29.839Z,8.50
2018-10-21T20:50:59.588Z,8.50
2018-10-21T20:53:29.450Z,8.40
2018-10-21T20:55:59.407Z,8.50
2018-10-21T20:58:29.115Z,8.50
2018-10-21T21:00:59.017Z,8.50
2018-10-21T21:03:28.658Z,8.60
2018-10-21T21:05:58.738Z,8.60
2018-10-21T21:08:28.418Z,8.60
2018-10-21T21:10:58.160Z,8.50
2018-10-21T21:13:27.883Z,8.40
2018-10-21T21:15:57.716Z,8.50
2018-10-21T21:18:27.564Z,8.60
2018-10-21T21:20:57.294Z,8.60
2018-10-21T21:23:27.107Z,8.60
2018-10-21T21:25:56.823Z,8.60
2018-10-21T21:28:26.523Z,8.60
2018-10-21T21:30:56.214Z,8.50
2018-10-21T21:33:25.878Z,8.50
2018-10-21T21:35:55.582Z,8.50
2018-10-21T21:38:25.254Z,8.60
2018-10-21T21:40:55.055Z,8.60
2018-10-21T21:43:24.751Z,8.50
2018-10-21T21:45:54.458Z,8.60
2018-10-21T21:48:24.171Z,8.70
2018-10-21T21:50:53.867Z,8.70
2018-10-21T21:53:23.556Z,8.70
2018-10-21T21:55:53.527Z,8.60
2018-10-21T21:58:23.204Z,8.60
2018-10-21T22:00:52.962Z,8.60
2018-10-21T22:03:22.651Z,8.50
2018-10-21T22:05:52.357Z,8.40
2018-10-21T22:08:22.036Z,8.40
2018-10-21T22:10:51.754Z,8.30
2018-10-21T22:13:21.450Z,8.30
2018-10-21T22:15:51.228Z,8.30
2018-10-21T22:18:20.899Z,8.30
2018-10-21T22:20:50.614Z,8.30
2018-10-21T22:23:20.284Z,8.30
2018-10-21T22:25:50.019Z,8.30
2018-10-21T22:28:22.215Z,8.30
2018-10-21T22:30:52.263Z,8.20
2018-10-21T22:33:21.975Z,8.10
2018-10-21T22:35:51.695Z,8.00
2018-10-21T22:38:21.418Z,8.00
2018-10-21T22:40:51.283Z,7.90
2018-10-21T22:43:20.979Z,7.80
2018-10-21T22:45:51.412Z,7.90
2018-10-21T22:48:21.075Z,7.90
2018-10-21T22:50:50.759Z,7.90
2018-10-21T22:53:20.446Z,7.90
2018-10-21T22:55:50.115Z,8.00
2018-10-21T22:58:19.787Z,7.90
2018-10-21T23:00:49.531Z,7.80
2018-10-21T23:03:19.230Z,7.90
2018-10-21T23:05:48.876Z,8.00
2018-10-21T23:08:18.551Z,8.00
2018-10-21T23:10:48.199Z,7.90
2018-10-21T23:13:17.865Z,7.90
2018-10-21T23:15:47.528Z,8.00
2018-10-21T23:18:17.284Z,7.90
2018-10-21T23:20:47.081Z,7.70
2018-10-21T23:23:16.774Z,7.70
2018-10-21T23:25:46.453Z,7.60
2018-10-21T23:28:16.241Z,7.70
2018-10-21T23:30:46.035Z,7.70
2018-10-21T23:33:15.705Z,7.70
2018-10-21T23:35:45.358Z,7.70
2018-10-21T23:38:15.035Z,7.70
2018-10-21T23:40:45.374Z,7.80
2018-10-21T23:43:15.193Z,7.80
2018-10-21T23:45:45.139Z,7.80
2018-10-21T23:48:14.899Z,7.70
2018-10-21T23:50:44.695Z,7.50
2018-10-21T23:53:14.376Z,7.50
2018-10-21T23:55:44.040Z,7.50
2018-10-21T23:58:13.780Z,7.50
